createdAt,value
2023-11-12T00:00:37.916Z,1.20
2023-11-12T00:03:24.998Z,1.40
2023-11-12T00:05:52.504Z,1.40
2023-11-12T00:08:19.505Z,1.30
2023-11-12T00:10:47.528Z,1.20
2023-11-12T00:13:14.479Z,1.50
2023-11-12T00:15:41.611Z,1.30
2023-11-12T00:18:08.592Z,1.20
2023-11-12T00:20:35.608Z,1.00
2023-11-12T00:23:02.908Z,1.60
2023-11-12T00:25:29.915Z,1.80
2023-11-12T00:27:57.981Z,1.40
2023-11-12T00:30:24.927Z,1.20
2023-11-12T00:32:53.423Z,1.90
2023-11-12T00:35:20.479Z,1.60
2023-11-12T00:37:47.680Z,1.70
2023-11-12T00:40:14.855Z,1.10
2023-11-12T00:42:41.595Z,1.40
2023-11-12T00:45:09.380Z,1.50
2023-11-12T00:47:36.077Z,1.70
2023-11-12T00:50:04.310Z,1.60
2023-11-12T00:52:31.326Z,1.20
2023-11-12T00:54:58.165Z,1.40
2023-11-12T00:57:25.214Z,1.70
2023-11-12T00:59:52.203Z,1.50
2023-11-12T01:02:19.284Z,1.60
2023-11-12T01:04:46.997Z,0.90
2023-11-12T01:07:13.944Z,1.30
2023-11-12T01:09:41.069Z,1.00
2023-11-12T01:12:09.684Z,1.50
2023-11-12T01:14:36.755Z,0.80
2023-11-12T01:17:06.029Z,0.90
2023-11-12T01:19:33.356Z,1.30
2023-11-12T01:22:00.293Z,1.30
2023-11-12T01:24:27.389Z,1.10
2023-11-12T01:26:54.594Z,1.10
2023-11-12T01:29:21.855Z,1.40
2023-11-12T01:31:48.864Z,1.30
2023-11-12T01:34:16.056Z,1.20
2023-11-12T01:36:43.193Z,1.10
2023-11-12T01:39:10.101Z,1.20
2023-11-12T01:41:37.705Z,1.00
2023-11-12T01:44:04.882Z,1.10
2023-11-12T01:46:33.215Z,1.20
2023-11-12T01:49:00.920Z,1.20
2023-11-12T01:51:32.427Z,0.90
2023-11-12T01:54:00.721Z,1.20
2023-11-12T01:56:29.413Z,0.90
2023-11-12T01:58:59.227Z,1.20
2023-11-12T02:01:26.730Z,0.60
2023-11-12T02:03:55.205Z,1.10
2023-11-12T02:06:22.565Z,0.80
2023-11-12T02:08:49.571Z,1.40
2023-11-12T02:11:17.220Z,1.00
2023-11-12T02:13:44.300Z,0.70
2023-11-12T02:16:11.386Z,0.90
2023-11-12T02:18:38.763Z,1.00
2023-11-12T02:21:06.203Z,1.10
2023-11-12T02:23:38.619Z,0.90
2023-11-12T02:26:05.657Z,1.10
2023-11-12T02:28:32.615Z,0.70
2023-11-12T02:30:59.464Z,1.30
2023-11-12T02:33:28.458Z,1.20
2023-11-12T02:35:56.416Z,1.20
2023-11-12T02:38:24.274Z,1.00
2023-11-12T02:40:52.358Z,0.80
2023-11-12T02:43:20.833Z,0.90
2023-11-12T02:45:48.160Z,1.20
2023-11-12T02:48:15.171Z,0.90
2023-11-12T02:50:42.284Z,0.80
2023-11-12T02:53:11.175Z,0.70
2023-11-12T02:55:38.476Z,1.20
2023-11-12T02:58:05.631Z,1.00
2023-11-12T03:00:33.827Z,1.00
2023-11-12T03:03:02.589Z,0.90
2023-11-12T03:05:32.200Z,0.80
2023-11-12T03:07:59.484Z,0.70
2023-11-12T03:10:27.058Z,0.80
2023-11-12T03:12:54.799Z,0.90
2023-11-12T03:15:24.452Z,0.90
2023-11-12T03:17:51.961Z,1.10
2023-11-12T03:20:19.282Z,1.00
2023-11-12T03:22:46.450Z,0.70
2023-11-12T03:25:13.251Z,0.90
2023-11-12T03:27:40.352Z,1.30
2023-11-12T03:30:09.960Z,1.30
2023-11-12T03:32:36.992Z,0.70
2023-11-12T03:35:05.348Z,0.80
2023-11-12T03:37:32.121Z,1.00
2023-11-12T03:39:58.921Z,0.70
2023-11-12T03:42:25.843Z,0.70
2023-11-12T03:44:52.789Z,0.80
2023-11-12T03:47:19.942Z,0.60
2023-11-12T03:49:46.890Z,0.70
2023-11-12T03:52:14.052Z,1.30
2023-11-12T03:54:41.616Z,0.80
2023-11-12T03:57:10.336Z,0.70
2023-11-12T03:59:37.561Z,0.80
2023-11-12T04:02:05.108Z,0.90
2023-11-12T04:04:32.782Z,0.80
2023-11-12T04:07:00.228Z,0.90
2023-11-12T04:09:27.745Z,0.60
2023-11-12T04:11:54.929Z,0.80
2023-11-12T04:14:22.076Z,0.90
2023-11-12T04:16:49.155Z,0.90
2023-11-12T04:19:16.229Z,1.10
2023-11-12T04:21:46.901Z,0.80
2023-11-12T04:24:14.572Z,0.90
2023-11-12T04:26:41.524Z,0.80
2023-11-12T04:29:09.494Z,1.00
2023-11-12T04:31:37.171Z,0.70
2023-11-12T04:34:04.640Z,0.70
2023-11-12T04:36:35.975Z,1.00
2023-11-12T04:39:04.235Z,1.40
2023-11-12T04:41:31.167Z,1.20
2023-11-12T04:43:57.971Z,0.70
2023-11-12T04:46:26.041Z,1.10
2023-11-12T04:48:53.427Z,0.80
2023-11-12T04:51:21.744Z,0.70
2023-11-12T04:53:49.436Z,0.80
2023-11-12T04:56:16.543Z,1.00
2023-11-12T04:58:43.577Z,0.70
2023-11-12T05:01:10.433Z,2.20
2023-11-12T05:03:37.492Z,0.80
2023-11-12T05:06:05.541Z,1.10
2023-11-12T05:08:32.444Z,5.10
2023-11-12T05:10:59.676Z,37.40
2023-11-12T05:13:26.815Z,18.30
2023-11-12T05:15:53.968Z,0.80
2023-11-12T05:18:22.035Z,1.10
2023-11-12T05:20:49.002Z,3.80
2023-11-12T05:23:16.010Z,3.90
2023-11-12T05:25:43.256Z,2.90
2023-11-12T05:28:10.305Z,2.00
2023-11-12T05:30:38.226Z,1.90
2023-11-12T05:33:05.466Z,1.50
2023-11-12T05:35:32.484Z,2.20
2023-11-12T05:37:59.423Z,8.80
2023-11-12T05:40:26.458Z,26.20
2023-11-12T05:42:53.184Z,34.70
2023-11-12T05:45:20.046Z,58.60
2023-11-12T05:47:47.012Z,92.70
2023-11-12T05:50:15.288Z,9.90
2023-11-12T05:52:43.047Z,4.40
2023-11-12T05:55:11.514Z,7.20
2023-11-12T05:57:38.560Z,2.10
2023-11-12T06:00:11.456Z,1.40
2023-11-12T06:02:41.210Z,1.00
2023-11-12T06:05:08.624Z,1.40
2023-11-12T06:07:35.550Z,1.20
2023-11-12T06:10:03.631Z,1.90
2023-11-12T06:12:30.916Z,1.00
2023-11-12T06:14:58.026Z,1.00
2023-11-12T06:17:27.845Z,0.60
2023-11-12T06:19:54.871Z,1.20
2023-11-12T06:22:21.901Z,0.90
2023-11-12T06:24:48.945Z,0.80
2023-11-12T06:27:16.043Z,1.00
2023-11-12T06:29:44.500Z,0.70
2023-11-12T06:32:11.261Z,1.60
2023-11-12T06:34:38.197Z,0.50
2023-11-12T06:37:05.045Z,0.80
2023-11-12T06:39:32.144Z,0.80
2023-11-12T06:41:59.749Z,1.30
2023-11-12T06:44:27.103Z,0.60
2023-11-12T06:46:54.102Z,0.50
2023-11-12T06:49:21.099Z,0.70
2023-11-12T06:51:47.968Z,0.60
2023-11-12T06:54:14.820Z,0.70
2023-11-12T06:56:41.846Z,0.50
2023-11-12T06:59:08.573Z,0.50
2023-11-12T07:01:37.977Z,0.60
2023-11-12T07:04:06.019Z,0.50
2023-11-12T07:06:33.983Z,0.50
2023-11-12T07:09:00.976Z,0.30
2023-11-12T07:11:28.479Z,0.50
2023-11-12T07:13:55.583Z,0.60
2023-11-12T07:16:23.982Z,0.60
2023-11-12T07:18:54.324Z,0.30
2023-11-12T07:21:30.957Z,0.50
2023-11-12T07:23:58.735Z,1.60
2023-11-12T07:26:26.091Z,0.70
2023-11-12T07:28:54.427Z,0.30
2023-11-12T07:31:23.816Z,1.40
2023-11-12T07:33:52.130Z,0.30
2023-11-12T07:36:19.285Z,0.60
2023-11-12T07:38:46.215Z,0.50
2023-11-12T07:41:12.984Z,0.50
2023-11-12T07:43:39.906Z,0.70
2023-11-12T07:46:07.826Z,0.60
2023-11-12T07:48:35.762Z,0.50
2023-11-12T07:51:02.744Z,0.50
2023-11-12T07:53:29.940Z,0.40
2023-11-12T07:55:56.978Z,0.30
2023-11-12T07:58:23.922Z,0.40
2023-11-12T08:00:50.797Z,0.40
2023-11-12T08:03:17.633Z,0.40
2023-11-12T08:05:46.699Z,0.30
2023-11-12T08:08:13.648Z,0.60
2023-11-12T08:10:40.815Z,0.20
2023-11-12T08:13:08.255Z,0.40
2023-11-12T08:15:35.130Z,0.50
2023-11-12T08:18:01.984Z,0.50
2023-11-12T08:20:29.079Z,0.50
2023-11-12T08:22:55.933Z,0.40
2023-11-12T08:25:22.986Z,0.90
2023-11-12T08:27:49.948Z,0.30
2023-11-12T08:30:17.385Z,0.40
2023-11-12T08:32:44.675Z,0.20
2023-11-12T08:35:11.703Z,0.40
2023-11-12T08:37:38.940Z,0.70
2023-11-12T08:40:08.084Z,0.40
2023-11-12T08:42:35.214Z,0.40
2023-11-12T08:45:04.972Z,0.30
2023-11-12T08:47:32.393Z,0.50
2023-11-12T08:49:59.812Z,0.60
2023-11-12T08:52:26.874Z,0.30
2023-11-12T08:54:54.132Z,0.30
2023-11-12T08:57:21.173Z,0.60
2023-11-12T08:59:48.054Z,0.30
2023-11-12T09:02:15.443Z,0.30
2023-11-12T09:04:42.376Z,0.70
2023-11-12T09:07:09.548Z,0.60
2023-11-12T09:09:36.679Z,0.50
2023-11-12T09:12:04.769Z,0.60
2023-11-12T09:14:31.818Z,0.30
2023-11-12T09:16:59.578Z,3.50
2023-11-12T09:19:26.836Z,7.80
2023-11-12T09:21:54.106Z,2.30
2023-11-12T09:24:20.958Z,7.10
2023-11-12T09:26:48.298Z,3.90
2023-11-12T09:29:15.229Z,1.60
2023-11-12T09:31:42.273Z,0.90
2023-11-12T09:34:09.352Z,0.60
2023-11-12T09:36:36.293Z,0.70
2023-11-12T09:39:04.554Z,0.30
2023-11-12T09:41:32.313Z,0.40
2023-11-12T09:44:04.376Z,0.80
2023-11-12T09:46:32.070Z,0.40
2023-11-12T09:48:59.502Z,0.50
2023-11-12T09:51:27.815Z,0.60
2023-11-12T09:53:55.432Z,0.60
2023-11-12T09:56:25.310Z,0.20
2023-11-12T09:58:53.419Z,0.30
2023-11-12T10:01:21.079Z,0.40
2023-11-12T10:03:49.797Z,0.60
2023-11-12T10:06:21.440Z,0.70
2023-11-12T10:08:50.526Z,0.40
2023-11-12T10:11:23.189Z,1.10
2023-11-12T10:14:00.804Z,0.40
2023-11-12T10:16:32.871Z,0.40
2023-11-12T10:19:18.028Z,0.40
2023-11-12T10:21:59.108Z,0.50
2023-11-12T10:24:30.846Z,0.30
2023-11-12T10:27:02.959Z,12.70
2023-11-12T10:29:30.484Z,11.30
2023-11-12T10:32:00.102Z,1.10
2023-11-12T10:34:27.851Z,0.30
2023-11-12T10:37:14.884Z,0.30
2023-11-12T10:39:44.154Z,0.60
2023-11-12T10:44:56.501Z,0.40
2023-11-12T10:47:25.227Z,0.40
2023-11-12T10:49:53.452Z,0.30
2023-11-12T10:52:20.504Z,0.50
2023-11-12T10:54:48.111Z,0.20
2023-11-12T10:57:15.522Z,0.30
2023-11-12T10:59:45.324Z,0.20
2023-11-12T11:02:20.650Z,0.30
2023-11-12T11:07:16.814Z,0.30
2023-11-12T11:09:44.785Z,0.30
2023-11-12T11:12:13.862Z,0.30
2023-11-12T11:14:40.821Z,0.40
2023-11-12T11:17:09.089Z,0.30
2023-11-12T11:19:45.470Z,0.30
2023-11-12T11:22:27.196Z,0.30
2023-11-12T11:24:55.884Z,0.30
2023-11-12T11:27:26.891Z,0.30
2023-11-12T11:30:25.291Z,0.30
2023-11-12T11:32:55.347Z,0.40
2023-11-12T11:35:24.981Z,0.30
2023-11-12T11:38:10.199Z,0.30
2023-11-12T11:40:38.596Z,0.40
2023-11-12T11:43:24.115Z,0.30
2023-11-12T11:46:18.584Z,0.40
2023-11-12T11:48:48.650Z,0.50
2023-11-12T11:51:31.369Z,0.30
2023-11-12T11:54:03.710Z,0.30
2023-11-12T11:56:31.694Z,3.00
2023-11-12T11:58:59.052Z,0.40
2023-11-12T12:01:26.911Z,0.30
2023-11-12T12:04:06.923Z,0.30
2023-11-12T12:06:34.506Z,0.60
2023-11-12T12:09:01.774Z,0.90
2023-11-12T12:11:29.018Z,0.40
2023-11-12T12:14:01.585Z,3.30
2023-11-12T12:16:29.382Z,0.30
2023-11-12T12:18:57.390Z,0.50
2023-11-12T12:21:25.327Z,0.30
2023-11-12T12:23:53.059Z,0.30
2023-11-12T12:26:25.343Z,0.40
2023-11-12T12:28:53.395Z,0.20
2023-11-12T12:31:20.880Z,0.40
2023-11-12T12:34:08.748Z,0.30
2023-11-12T12:36:36.733Z,0.30
2023-11-12T12:39:11.627Z,0.40
2023-11-12T12:41:38.608Z,0.30
2023-11-12T12:44:07.629Z,0.40
2023-11-12T12:46:48.123Z,0.40
2023-11-12T12:49:33.163Z,0.30
2023-11-12T12:52:03.035Z,0.30
2023-11-12T12:54:31.369Z,0.30
2023-11-12T12:57:00.147Z,0.20
2023-11-12T12:59:38.237Z,0.30
2023-11-12T13:02:06.339Z,0.50
2023-11-12T13:04:35.811Z,0.40
2023-11-12T13:07:07.273Z,0.40
2023-11-12T13:09:34.399Z,0.50
2023-11-12T13:12:04.546Z,0.40
2023-11-12T13:14:34.762Z,0.40
2023-11-12T13:17:01.922Z,0.30
2023-11-12T13:19:28.740Z,0.70
2023-11-12T13:22:02.224Z,0.50
2023-11-12T13:24:30.925Z,0.30
2023-11-12T13:26:58.391Z,0.20
2023-11-12T13:29:27.805Z,0.30
2023-11-12T13:31:57.436Z,0.20
2023-11-12T13:34:24.687Z,0.30
2023-11-12T13:36:52.029Z,0.90
2023-11-12T13:39:19.690Z,2.40
2023-11-12T13:41:47.756Z,1.40
2023-11-12T13:44:15.153Z,0.30
2023-11-12T13:46:42.169Z,0.40
2023-11-12T13:49:09.984Z,0.70
2023-11-12T13:51:40.466Z,0.40
2023-11-12T13:54:11.060Z,0.30
2023-11-12T13:56:39.766Z,0.40
2023-11-12T13:59:06.707Z,0.50
2023-11-12T14:01:33.839Z,0.50
2023-11-12T14:04:01.493Z,1.70
2023-11-12T14:06:28.795Z,3.10
2023-11-12T14:08:56.733Z,3.60
2023-11-12T14:11:23.899Z,1.20
2023-11-12T14:13:51.646Z,0.40
2023-11-12T14:16:18.882Z,0.50
2023-11-12T14:18:46.108Z,0.60
2023-11-12T14:21:13.203Z,0.50
2023-11-12T14:23:40.352Z,1.00
2023-11-12T14:26:08.783Z,0.50
2023-11-12T14:28:36.304Z,2.80
2023-11-12T14:31:07.484Z,0.90
2023-11-12T14:33:35.297Z,1.30
2023-11-12T14:36:02.663Z,2.40
2023-11-12T14:38:30.010Z,5.00
2023-11-12T14:40:56.952Z,67.70
2023-11-12T14:43:24.098Z,9.90
2023-11-12T14:45:51.284Z,21.00
2023-11-12T14:48:20.035Z,6.30
2023-11-12T14:50:48.015Z,10.00
2023-11-12T14:53:16.389Z,1.30
2023-11-12T14:55:43.251Z,1.10
2023-11-12T14:58:10.526Z,0.80
2023-11-12T15:00:37.535Z,0.90
2023-11-12T15:03:07.946Z,1.00
2023-11-12T15:05:36.073Z,2.60
2023-11-12T15:08:04.102Z,0.90
2023-11-12T15:10:31.041Z,1.20
2023-11-12T15:12:58.110Z,1.60
2023-11-12T15:15:25.362Z,1.50
2023-11-12T15:17:52.538Z,1.20
2023-11-12T15:20:19.545Z,1.30
2023-11-12T15:22:47.205Z,1.30
2023-11-12T15:25:14.726Z,1.80
2023-11-12T15:27:46.168Z,2.20
2023-11-12T15:30:14.662Z,3.70
2023-11-12T15:32:43.261Z,7.80
2023-11-12T15:35:13.998Z,4.80
2023-11-12T15:37:41.270Z,3.30
2023-11-12T15:40:14.973Z,3.10
2023-11-12T15:42:44.019Z,1.50
2023-11-12T15:45:12.481Z,2.20
2023-11-12T15:47:40.413Z,3.70
2023-11-12T15:50:13.020Z,3.20
2023-11-12T15:52:40.962Z,1.60
2023-11-12T15:55:09.361Z,2.00
2023-11-12T15:57:37.738Z,1.60
2023-11-12T16:00:13.478Z,1.90
2023-11-12T16:02:41.562Z,2.20
2023-11-12T16:05:10.443Z,2.70
2023-11-12T16:07:40.043Z,3.50
2023-11-12T16:10:09.392Z,11.20
2023-11-12T16:12:37.334Z,4.60
2023-11-12T16:15:07.540Z,2.80
2023-11-12T16:17:34.407Z,2.20
2023-11-12T16:20:01.545Z,2.00
2023-11-12T16:22:28.692Z,1.80
2023-11-12T16:24:55.689Z,2.10
2023-11-12T16:27:22.688Z,2.50
2023-11-12T16:29:49.726Z,2.10
2023-11-12T16:32:20.503Z,2.30
2023-11-12T16:34:47.283Z,2.10
2023-11-12T16:37:15.162Z,1.90
2023-11-12T16:39:47.001Z,4.00
2023-11-12T16:42:20.511Z,2.70
2023-11-12T16:44:47.578Z,2.30
2023-11-12T16:47:17.110Z,3.00
2023-11-12T16:49:45.963Z,2.60
2023-11-12T16:52:13.419Z,2.10
2023-11-12T16:54:40.394Z,2.20
2023-11-12T16:57:10.479Z,1.90
2023-11-12T16:59:41.725Z,2.60
2023-11-12T17:02:10.949Z,4.00
2023-11-12T17:04:38.994Z,4.40
2023-11-12T17:07:11.195Z,4.50
2023-11-12T17:09:39.272Z,3.80
2023-11-12T17:12:07.018Z,4.00
2023-11-12T17:14:34.265Z,6.40
2023-11-12T17:17:01.091Z,6.00
2023-11-12T17:19:28.664Z,6.40
2023-11-12T17:21:57.266Z,6.20
2023-11-12T17:24:24.407Z,8.10
2023-11-12T17:26:51.799Z,9.80
2023-11-12T17:29:20.760Z,8.80
2023-11-12T17:31:51.380Z,9.70
2023-11-12T17:34:19.549Z,11.20
2023-11-12T17:36:48.993Z,13.40
2023-11-12T17:39:22.096Z,13.20
2023-11-12T17:41:50.733Z,13.40
2023-11-12T17:44:17.977Z,12.30
2023-11-12T17:46:45.318Z,13.40
2023-11-12T17:49:12.876Z,11.90
2023-11-12T17:51:40.905Z,13.50
2023-11-12T17:54:07.918Z,17.00
2023-11-12T17:56:37.626Z,21.20
2023-11-12T17:59:05.811Z,20.70
2023-11-12T18:01:33.065Z,27.60
2023-11-12T18:04:02.735Z,21.80
2023-11-12T18:06:29.910Z,15.80
2023-11-12T18:08:56.687Z,16.30
2023-11-12T18:11:23.972Z,14.40
2023-11-12T18:13:50.871Z,8.80
2023-11-12T18:16:20.624Z,8.20
2023-11-12T18:18:48.130Z,5.00
2023-11-12T18:21:15.883Z,5.00
2023-11-12T18:23:43.404Z,4.60
2023-11-12T18:26:12.027Z,4.80
2023-11-12T18:28:39.100Z,4.60
2023-11-12T18:31:06.660Z,5.10
2023-11-12T18:33:35.748Z,5.10
2023-11-12T18:36:02.778Z,6.60
2023-11-12T18:38:29.639Z,8.30
2023-11-12T18:40:56.777Z,9.20
2023-11-12T18:43:25.356Z,9.00
2023-11-12T18:45:56.632Z,9.00
2023-11-12T18:48:24.568Z,7.80
2023-11-12T18:50:52.221Z,7.80
2023-11-12T18:53:21.943Z,9.00
2023-11-12T18:55:51.654Z,8.60
2023-11-12T18:58:18.513Z,8.20
2023-11-12T19:00:45.927Z,7.60
2023-11-12T19:03:13.422Z,7.90
2023-11-12T19:05:41.686Z,9.20
2023-11-12T19:08:13.865Z,8.10
2023-11-12T19:10:40.900Z,8.90
2023-11-12T19:13:09.023Z,10.20
2023-11-12T19:15:39.510Z,19.90
2023-11-12T19:18:06.620Z,15.60
2023-11-12T19:20:40.666Z,18.00
2023-11-12T19:23:07.714Z,16.40
2023-11-12T19:25:40.387Z,11.90
2023-11-12T19:28:07.210Z,10.60
2023-11-12T19:30:35.144Z,8.90
2023-11-12T19:33:02.754Z,5.60
2023-11-12T19:35:29.824Z,13.80
2023-11-12T19:37:59.819Z,11.60
2023-11-12T19:40:26.705Z,18.60
2023-11-12T19:42:54.173Z,6.70
2023-11-12T19:45:21.483Z,4.70
2023-11-12T19:47:54.686Z,4.90
2023-11-12T19:50:24.326Z,4.30
2023-11-12T19:52:51.432Z,5.60
2023-11-12T19:55:19.625Z,6.00
2023-11-12T19:57:46.590Z,7.20
2023-11-12T20:00:14.305Z,5.70
2023-11-12T20:02:41.320Z,5.70
2023-11-12T20:05:08.990Z,5.50
2023-11-12T20:07:36.237Z,5.00
2023-11-12T20:10:04.692Z,5.20
2023-11-12T20:12:31.596Z,6.70
2023-11-12T20:15:02.030Z,9.70
2023-11-12T20:17:29.518Z,9.70
2023-11-12T20:19:56.634Z,13.40
2023-11-12T20:22:23.580Z,11.20
2023-11-12T20:24:51.006Z,6.90
2023-11-12T20:27:19.420Z,4.80
2023-11-12T20:29:47.408Z,4.00
2023-11-12T20:32:15.804Z,3.50
2023-11-12T20:34:45.168Z,2.70
2023-11-12T20:37:14.257Z,3.10
2023-11-12T20:39:41.347Z,2.60
2023-11-12T20:42:11.230Z,3.60
2023-11-12T20:47:11.727Z,2.60
2023-11-12T20:49:43.529Z,3.80
2023-11-12T20:52:10.522Z,4.90
2023-11-12T20:54:40.448Z,5.20
2023-11-12T20:59:34.875Z,3.70
2023-11-12T21:02:10.256Z,3.50
2023-11-12T21:04:45.607Z,5.00
2023-11-12T21:07:13.351Z,4.40
2023-11-12T21:09:40.299Z,4.80
2023-11-12T21:12:08.569Z,5.40
2023-11-12T21:14:35.725Z,8.90
2023-11-12T21:17:02.844Z,8.30
2023-11-12T21:19:29.918Z,4.30
2023-11-12T21:21:56.777Z,3.30
2023-11-12T21:24:23.702Z,3.10
2023-11-12T21:26:50.916Z,9.00
2023-11-12T21:29:18.527Z,3.60
2023-11-12T21:31:46.541Z,2.60
2023-11-12T21:34:14.641Z,2.80
2023-11-12T21:36:42.091Z,3.60
2023-11-12T21:39:11.117Z,14.80
2023-11-12T21:44:09.205Z,4.60
2023-11-12T21:46:36.373Z,3.10
2023-11-12T21:49:05.340Z,2.50
2023-11-12T21:51:33.012Z,2.40
2023-11-12T21:53:59.843Z,2.70
2023-11-12T21:56:28.428Z,2.00
2023-11-12T21:58:55.275Z,2.10
2023-11-12T22:01:24.955Z,1.80
2023-11-12T22:03:52.080Z,1.90
2023-11-12T22:06:19.688Z,2.20
2023-11-12T22:08:46.523Z,2.10
2023-11-12T22:11:13.473Z,2.10
2023-11-12T22:13:41.039Z,2.50
2023-11-12T22:16:09.469Z,2.50
2023-11-12T22:18:36.575Z,4.20
2023-11-12T22:21:05.052Z,4.90
2023-11-12T22:23:32.002Z,4.30
2023-11-12T22:25:58.999Z,4.10
2023-11-12T22:28:25.905Z,6.00
2023-11-12T22:30:53.093Z,6.00
2023-11-12T22:33:20.078Z,8.00
2023-11-12T22:35:47.847Z,8.70
2023-11-12T22:38:14.796Z,8.70
2023-11-12T22:40:42.562Z,6.00
2023-11-12T22:43:09.623Z,5.50
2023-11-12T22:45:37.574Z,3.80
2023-11-12T22:48:05.500Z,5.10
2023-11-12T22:50:32.828Z,4.70
2023-11-12T22:52:59.845Z,7.90
2023-11-12T22:55:26.748Z,7.50
2023-11-12T22:57:53.788Z,7.10
2023-11-12T23:00:40.600Z,4.90
2023-11-12T23:03:15.820Z,2.70
2023-11-12T23:05:52.154Z,2.90
2023-11-12T23:10:49.015Z,2.80
2023-11-12T23:13:18.136Z,2.10
2023-11-12T23:15:45.717Z,2.20
2023-11-12T23:18:13.592Z,2.10
2023-11-12T23:20:40.703Z,2.10
2023-11-12T23:23:08.857Z,2.90
2023-11-12T23:25:35.814Z,2.70
2023-11-12T23:28:03.430Z,2.40
2023-11-12T23:30:31.179Z,3.00
2023-11-12T23:32:58.016Z,2.40
2023-11-12T23:35:26.754Z,2.10
2023-11-12T23:37:54.068Z,1.70
2023-11-12T23:40:21.085Z,1.60
2023-11-12T23:42:48.185Z,1.70
2023-11-12T23:45:15.408Z,1.60
2023-11-12T23:47:42.410Z,1.80
2023-11-12T23:50:10.678Z,1.50
2023-11-12T23:52:37.830Z,1.60
2023-11-12T23:55:06.009Z,1.80
2023-11-12T23:57:34.595Z,9.80
